sensor_id;sensor_type;location;lat;lon;timestamp;pressure;altitude;pressure_sealevel;temperature;humidity
17309;BME280;8772;42.804;23.426;2022-12-16T00:02:14;74468.22;;;-140.58;100.00
17309;BME280;8772;42.804;23.426;2022-12-16T00:04:42;74462.06;;;-140.58;100.00
17309;BME280;8772;42.804;23.426;2022-12-16T00:07:09;74480.53;;;-140.58;100.00
17309;BME280;8772;42.804;23.426;2022-12-16T00:09:36;74478.50;;;-140.58;100.00
17309;BME280;8772;42.804;23.426;2022-12-16T00:12:03;74474.38;;;-140.58;100.00
17309;BME280;8772;42.804;23.426;2022-12-16T00:14:30;74492.84;;;-140.58;100.00
17309;BME280;8772;42.804;23.426;2022-12-16T00:16:57;74499.00;;;-140.58;100.00
17309;BME280;8772;42.804;23.426;2022-12-16T00:19:24;74503.13;;;-140.58;100.00
17309;BME280;8772;42.804;23.426;2022-12-16T00:21:52;74519.53;;;-140.58;100.00
17309;BME280;8772;42.804;23.426;2022-12-16T00:24:19;74517.47;;;-140.58;100.00
17309;BME280;8772;42.804;23.426;2022-12-16T00:26:46;74507.22;;;-140.58;100.00
17309;BME280;8772;42.804;23.426;2022-12-16T00:29:13;74515.44;;;-140.58;100.00
17309;BME280;8772;42.804;23.426;2022-12-16T00:31:40;74527.75;;;-140.58;100.00
17309;BME280;8772;42.804;23.426;2022-12-16T00:34:06;74523.63;;;-140.58;100.00
17309;BME280;8772;42.804;23.426;2022-12-16T00:36:33;74538.00;;;-140.58;100.00
17309;BME280;8772;42.804;23.426;2022-12-16T00:39:02;74535.94;;;-140.58;100.00
17309;BME280;8772;42.804;23.426;2022-12-16T00:41:29;74540.06;;;-140.58;100.00
17309;BME280;8772;42.804;23.426;2022-12-16T00:43:56;74529.78;;;-140.58;100.00
17309;BME280;8772;42.804;23.426;2022-12-16T00:46:22;74527.75;;;-140.58;100.00
17309;BME280;8772;42.804;23.426;2022-12-16T00:48:49;74523.63;;;-140.58;100.00
17309;BME280;8772;42.804;23.426;2022-12-16T00:51:16;74538.00;;;-140.58;100.00
17309;BME280;8772;42.804;23.426;2022-12-16T00:53:43;74531.84;;;-140.58;100.00
17309;BME280;8772;42.804;23.426;2022-12-16T00:56:12;74542.09;;;-140.58;100.00
17309;BME280;8772;42.804;23.426;2022-12-16T00:58:40;74540.06;;;-140.58;100.00
17309;BME280;8772;42.804;23.426;2022-12-16T01:01:07;74542.09;;;-140.58;100.00
17309;BME280;8772;42.804;23.426;2022-12-16T01:06:56;74542.09;;;-140.58;100.00
17309;BME280;8772;42.804;23.426;2022-12-16T01:09:23;74533.91;;;-140.58;100.00
17309;BME280;8772;42.804;23.426;2022-12-16T01:11:51;74527.75;;;-140.58;100.00
17309;BME280;8772;42.804;23.426;2022-12-16T01:14:18;74519.53;;;-140.58;100.00
17309;BME280;8772;42.804;23.426;2022-12-16T01:16:45;74515.44;;;-140.58;100.00
17309;BME280;8772;42.804;23.426;2022-12-16T01:19:11;74503.13;;;-140.58;100.00
17309;BME280;8772;42.804;23.426;2022-12-16T01:21:38;74507.22;;;-140.58;100.00
17309;BME280;8772;42.804;23.426;2022-12-16T01:24:05;74515.44;;;-140.58;100.00
17309;BME280;8772;42.804;23.426;2022-12-16T01:26:32;74519.53;;;-140.58;100.00
17309;BME280;8772;42.804;23.426;2022-12-16T01:29:01;74523.63;;;-140.58;100.00
17309;BME280;8772;42.804;23.426;2022-12-16T01:31:28;74503.13;;;-140.58;100.00
17309;BME280;8772;42.804;23.426;2022-12-16T01:33:55;74499.00;;;-140.58;100.00
17309;BME280;8772;42.804;23.426;2022-12-16T01:36:22;74511.31;;;-140.58;100.00
17309;BME280;8772;42.804;23.426;2022-12-16T01:38:49;74507.22;;;-140.58;100.00
17309;BME280;8772;42.804;23.426;2022-12-16T01:41:16;74515.44;;;-140.58;100.00
17309;BME280;8772;42.804;23.426;2022-12-16T01:43:44;74496.97;;;-140.58;100.00
17309;BME280;8772;42.804;23.426;2022-12-16T01:46:16;74494.91;;;-140.58;100.00
17309;BME280;8772;42.804;23.426;2022-12-16T01:48:48;74494.91;;;-140.58;100.00
17309;BME280;8772;42.804;23.426;2022-12-16T01:51:21;74505.16;;;-140.58;100.00
17309;BME280;8772;42.804;23.426;2022-12-16T01:53:52;74490.81;;;-140.58;100.00
17309;BME280;8772;42.804;23.426;2022-12-16T01:56:22;74484.66;;;-140.58;100.00
17309;BME280;8772;42.804;23.426;2022-12-16T01:58:51;74480.53;;;-140.58;100.00
17309;BME280;8772;42.804;23.426;2022-12-16T02:01:20;74484.66;;;-140.58;100.00
17309;BME280;8772;42.804;23.426;2022-12-16T02:03:48;74490.81;;;-140.58;100.00
17309;BME280;8772;42.804;23.426;2022-12-16T02:06:17;74503.13;;;-140.58;100.00
17309;BME280;8772;42.804;23.426;2022-12-16T02:08:43;74503.13;;;-140.58;100.00
17309;BME280;8772;42.804;23.426;2022-12-16T02:11:26;74499.00;;;-140.58;100.00
17309;BME280;8772;42.804;23.426;2022-12-16T02:14:15;74490.81;;;-140.58;100.00
17309;BME280;8772;42.804;23.426;2022-12-16T02:16:52;74482.59;;;-140.58;100.00
17309;BME280;8772;42.804;23.426;2022-12-16T02:22:48;74480.53;;;-140.58;100.00
17309;BME280;8772;42.804;23.426;2022-12-16T02:28:46;74499.00;;;-140.58;100.00
17309;BME280;8772;42.804;23.426;2022-12-16T02:31:23;74492.84;;;-140.58;100.00
17309;BME280;8772;42.804;23.426;2022-12-16T02:34:04;74486.69;;;-140.58;100.00
17309;BME280;8772;42.804;23.426;2022-12-16T02:36:42;74490.81;;;-140.58;100.00
17309;BME280;8772;42.804;23.426;2022-12-16T02:39:16;74503.13;;;-140.58;100.00
17309;BME280;8772;42.804;23.426;2022-12-16T02:41:49;74505.16;;;-140.58;100.00
17309;BME280;8772;42.804;23.426;2022-12-16T02:44:18;74492.84;;;-140.58;100.00
17309;BME280;8772;42.804;23.426;2022-12-16T02:46:54;74490.81;;;-140.58;100.00
17309;BME280;8772;42.804;23.426;2022-12-16T02:49:44;74507.22;;;-140.58;100.00
17309;BME280;8772;42.804;23.426;2022-12-16T02:52:13;74542.09;;;-140.58;100.00
17309;BME280;8772;42.804;23.426;2022-12-16T02:54:40;74542.09;;;-140.58;100.00
17309;BME280;8772;42.804;23.426;2022-12-16T02:57:16;74558.53;;;-140.58;100.00
17309;BME280;8772;42.804;23.426;2022-12-16T02:59:51;74548.25;;;-140.58;100.00
17309;BME280;8772;42.804;23.426;2022-12-16T03:02:28;74538.00;;;-140.58;100.00
17309;BME280;8772;42.804;23.426;2022-12-16T03:05:01;74556.47;;;-140.58;100.00
17309;BME280;8772;42.804;23.426;2022-12-16T03:07:33;74535.94;;;-140.58;100.00
17309;BME280;8772;42.804;23.426;2022-12-16T03:10:03;74531.84;;;-140.58;100.00
17309;BME280;8772;42.804;23.426;2022-12-16T03:12:33;74535.94;;;-140.58;100.00
17309;BME280;8772;42.804;23.426;2022-12-16T03:15:01;74525.69;;;-140.58;100.00
17309;BME280;8772;42.804;23.426;2022-12-16T03:17:30;74515.44;;;-140.58;100.00
17309;BME280;8772;42.804;23.426;2022-12-16T03:20:02;74511.31;;;-140.58;100.00
17309;BME280;8772;42.804;23.426;2022-12-16T03:22:35;74517.47;;;-140.58;100.00
17309;BME280;8772;42.804;23.426;2022-12-16T03:25:04;74494.91;;;-140.58;100.00
17309;BME280;8772;42.804;23.426;2022-12-16T03:27:34;74484.66;;;-140.58;100.00
17309;BME280;8772;42.804;23.426;2022-12-16T03:30:08;74472.34;;;-140.58;100.00
17309;BME280;8772;42.804;23.426;2022-12-16T03:32:40;74460.03;;;-140.58;100.00
17309;BME280;8772;42.804;23.426;2022-12-16T03:35:12;74462.06;;;-140.58;100.00
17309;BME280;8772;42.804;23.426;2022-12-16T03:37:41;74451.81;;;-140.58;100.00
17309;BME280;8772;42.804;23.426;2022-12-16T03:40:11;74449.78;;;-140.58;100.00
17309;BME280;8772;42.804;23.426;2022-12-16T03:42:40;74466.19;;;-140.58;100.00
17309;BME280;8772;42.804;23.426;2022-12-16T03:45:13;74460.03;;;-140.58;100.00
17309;BME280;8772;42.804;23.426;2022-12-16T03:47:47;74466.19;;;-140.58;100.00
17309;BME280;8772;42.804;23.426;2022-12-16T03:50:14;74455.94;;;-140.58;100.00
17309;BME280;8772;42.804;23.426;2022-12-16T03:52:41;74441.56;;;-140.58;100.00
17309;BME280;8772;42.804;23.426;2022-12-16T03:55:08;74441.56;;;-140.58;100.00
17309;BME280;8772;42.804;23.426;2022-12-16T03:57:35;74427.19;;;-140.58;100.00
17309;BME280;8772;42.804;23.426;2022-12-16T04:00:03;74421.03;;;-140.58;100.00
17309;BME280;8772;42.804;23.426;2022-12-16T04:02:30;74421.03;;;-140.58;100.00
17309;BME280;8772;42.804;23.426;2022-12-16T04:04:58;74419.00;;;-140.58;100.00
17309;BME280;8772;42.804;23.426;2022-12-16T04:07:25;74408.72;;;-140.58;100.00
17309;BME280;8772;42.804;23.426;2022-12-16T04:09:52;74400.53;;;-140.58;100.00
17309;BME280;8772;42.804;23.426;2022-12-16T04:12:19;74400.53;;;-140.58;100.00
17309;BME280;8772;42.804;23.426;2022-12-16T04:15:05;74380.00;;;-140.58;100.00
17309;BME280;8772;42.804;23.426;2022-12-16T04:17:49;74367.69;;;-140.58;100.00
17309;BME280;8772;42.804;23.426;2022-12-16T04:20:42;74334.88;;;-140.58;100.00
17309;BME280;8772;42.804;23.426;2022-12-16T04:23:29;74310.25;;;-140.58;100.00
17309;BME280;8772;42.804;23.426;2022-12-16T04:26:15;74304.09;;;-140.58;100.00
17309;BME280;8772;42.804;23.426;2022-12-16T04:28:42;74289.72;;;-140.58;100.00
17309;BME280;8772;42.804;23.426;2022-12-16T04:31:09;74287.69;;;-140.58;100.00
17309;BME280;8772;42.804;23.426;2022-12-16T04:33:37;74277.41;;;-140.58;100.00
17309;BME280;8772;42.804;23.426;2022-12-16T04:36:38;74273.31;;;-140.58;100.00
17309;BME280;8772;42.804;23.426;2022-12-16T04:39:22;74277.41;;;-140.58;100.00
17309;BME280;8772;42.804;23.426;2022-12-16T04:42:14;74281.53;;;-140.58;100.00
17309;BME280;8772;42.804;23.426;2022-12-16T04:44:58;74297.94;;;-140.58;100.00
17309;BME280;8772;42.804;23.426;2022-12-16T04:47:42;74293.84;;;-140.58;100.00
17309;BME280;8772;42.804;23.426;2022-12-16T04:50:27;74281.53;;;-140.58;100.00
17309;BME280;8772;42.804;23.426;2022-12-16T04:53:13;74273.31;;;-140.58;100.00
17309;BME280;8772;42.804;23.426;2022-12-16T04:55:57;74281.53;;;-140.58;100.00
17309;BME280;8772;42.804;23.426;2022-12-16T04:58:42;74297.94;;;-140.58;100.00
17309;BME280;8772;42.804;23.426;2022-12-16T05:01:26;74326.66;;;-140.58;100.00
17309;BME280;8772;42.804;23.426;2022-12-16T05:04:10;74318.44;;;-140.58;100.00
17309;BME280;8772;42.804;23.426;2022-12-16T05:06:55;74330.75;;;-140.58;100.00
17309;BME280;8772;42.804;23.426;2022-12-16T05:09:41;74334.88;;;-140.58;100.00
17309;BME280;8772;42.804;23.426;2022-12-16T05:12:25;74328.72;;;-140.58;100.00
17309;BME280;8772;42.804;23.426;2022-12-16T05:15:09;74312.28;;;-140.58;100.00
17309;BME280;8772;42.804;23.426;2022-12-16T05:17:54;74312.28;;;-140.58;100.00
17309;BME280;8772;42.804;23.426;2022-12-16T05:20:38;74302.03;;;-140.58;100.00
17309;BME280;8772;42.804;23.426;2022-12-16T05:23:22;74273.31;;;-140.58;100.00
17309;BME280;8772;42.804;23.426;2022-12-16T05:26:08;74252.81;;;-140.58;100.00
17309;BME280;8772;42.804;23.426;2022-12-16T05:28:53;74248.69;;;-140.58;100.00
17309;BME280;8772;42.804;23.426;2022-12-16T05:31:37;74228.19;;;-140.58;100.00
17309;BME280;8772;42.804;23.426;2022-12-16T05:34:21;74238.44;;;-140.58;100.00
17309;BME280;8772;42.804;23.426;2022-12-16T05:37:05;74224.06;;;-140.58;100.00
17309;BME280;8772;42.804;23.426;2022-12-16T05:39:50;74199.47;;;-140.58;100.00
17309;BME280;8772;42.804;23.426;2022-12-16T05:42:35;74178.94;;;-140.58;100.00
17309;BME280;8772;42.804;23.426;2022-12-16T05:45:19;74170.72;;;-140.58;100.00
17309;BME280;8772;42.804;23.426;2022-12-16T05:48:04;74170.72;;;-140.58;100.00
17309;BME280;8772;42.804;23.426;2022-12-16T05:50:49;74162.53;;;-140.58;100.00
17309;BME280;8772;42.804;23.426;2022-12-16T05:53:34;74146.09;;;-140.58;100.00
17309;BME280;8772;42.804;23.426;2022-12-16T05:56:18;74158.41;;;-140.58;100.00
17309;BME280;8772;42.804;23.426;2022-12-16T05:59:04;74144.06;;;-140.58;100.00
17309;BME280;8772;42.804;23.426;2022-12-16T06:01:48;74133.81;;;-140.58;100.00
17309;BME280;8772;42.804;23.426;2022-12-16T06:04:33;74144.06;;;-140.58;100.00
17309;BME280;8772;42.804;23.426;2022-12-16T06:07:17;74135.84;;;-140.58;100.00
17309;BME280;8772;42.804;23.426;2022-12-16T06:10:01;74150.22;;;-140.58;100.00
17309;BME280;8772;42.804;23.426;2022-12-16T06:12:46;74146.09;;;-140.58;100.00
17309;BME280;8772;42.804;23.426;2022-12-16T06:15:32;74164.56;;;-140.58;100.00
17309;BME280;8772;42.804;23.426;2022-12-16T06:18:16;74172.78;;;-140.58;100.00
17309;BME280;8772;42.804;23.426;2022-12-16T06:21:00;74164.56;;;-140.58;100.00
17309;BME280;8772;42.804;23.426;2022-12-16T06:23:45;74170.72;;;-140.58;100.00
17309;BME280;8772;42.804;23.426;2022-12-16T06:26:29;74166.63;;;-140.58;100.00
17309;BME280;8772;42.804;23.426;2022-12-16T06:29:14;74156.38;;;-140.58;100.00
17309;BME280;8772;42.804;23.426;2022-12-16T06:31:59;74156.38;;;-140.58;100.00
17309;BME280;8772;42.804;23.426;2022-12-16T06:34:43;74158.41;;;-140.58;100.00
17309;BME280;8772;42.804;23.426;2022-12-16T06:37:28;74158.41;;;-140.58;100.00
17309;BME280;8772;42.804;23.426;2022-12-16T06:40:12;74156.38;;;-140.58;100.00
17309;BME280;8772;42.804;23.426;2022-12-16T06:42:57;74144.06;;;-140.58;100.00
17309;BME280;8772;42.804;23.426;2022-12-16T06:45:41;74142.00;;;-140.58;100.00
17309;BME280;8772;42.804;23.426;2022-12-16T06:48:27;74137.91;;;-140.58;100.00
17309;BME280;8772;42.804;23.426;2022-12-16T06:51:11;74129.69;;;-140.58;100.00
17309;BME280;8772;42.804;23.426;2022-12-16T06:53:55;74121.50;;;-140.58;100.00
17309;BME280;8772;42.804;23.426;2022-12-16T06:56:39;74113.28;;;-140.58;100.00
17309;BME280;8772;42.804;23.426;2022-12-16T06:59:23;74121.50;;;-140.58;100.00
17309;BME280;8772;42.804;23.426;2022-12-16T07:02:13;74133.81;;;-140.58;100.00
17309;BME280;8772;42.804;23.426;2022-12-16T07:04:59;74133.81;;;-140.58;100.00
17309;BME280;8772;42.804;23.426;2022-12-16T07:07:46;74133.81;;;-140.58;100.00
17309;BME280;8772;42.804;23.426;2022-12-16T07:10:31;74121.50;;;-140.58;100.00
17309;BME280;8772;42.804;23.426;2022-12-16T07:13:15;74125.59;;;-140.58;100.00
17309;BME280;8772;42.804;23.426;2022-12-16T07:15:59;74113.28;;;-140.58;100.00
17309;BME280;8772;42.804;23.426;2022-12-16T07:18:44;74117.38;;;-140.58;100.00
17309;BME280;8772;42.804;23.426;2022-12-16T07:21:30;74105.09;;;-140.58;100.00
17309;BME280;8772;42.804;23.426;2022-12-16T07:24:14;74096.88;;;-140.58;100.00
17309;BME280;8772;42.804;23.426;2022-12-16T07:26:59;74096.88;;;-140.58;100.00
17309;BME280;8772;42.804;23.426;2022-12-16T07:29:43;74088.66;;;-140.58;100.00
17309;BME280;8772;42.804;23.426;2022-12-16T07:32:27;74086.63;;;-140.58;100.00
17309;BME280;8772;42.804;23.426;2022-12-16T07:35:11;74086.63;;;-140.58;100.00
17309;BME280;8772;42.804;23.426;2022-12-16T07:38:09;74092.78;;;-140.58;100.00
17309;BME280;8772;42.804;23.426;2022-12-16T07:40:53;74105.09;;;-140.58;100.00
17309;BME280;8772;42.804;23.426;2022-12-16T07:43:38;74094.81;;;-140.58;100.00
17309;BME280;8772;42.804;23.426;2022-12-16T07:46:23;74084.56;;;-140.58;100.00
17309;BME280;8772;42.804;23.426;2022-12-16T07:49:08;74080.47;;;-140.58;100.00
17309;BME280;8772;42.804;23.426;2022-12-16T07:51:52;74088.66;;;-140.58;100.00
17309;BME280;8772;42.804;23.426;2022-12-16T07:54:38;74084.56;;;-140.58;100.00
17309;BME280;8772;42.804;23.426;2022-12-16T07:57:22;74082.50;;;-140.58;100.00
17309;BME280;8772;42.804;23.426;2022-12-16T08:00:09;74084.56;;;-140.58;100.00
17309;BME280;8772;42.804;23.426;2022-12-16T08:02:54;74072.25;;;-140.58;100.00
17309;BME280;8772;42.804;23.426;2022-12-16T08:05:38;74059.94;;;-140.58;100.00
17309;BME280;8772;42.804;23.426;2022-12-16T08:08:22;74055.84;;;-140.58;100.00
17309;BME280;8772;42.804;23.426;2022-12-16T08:11:08;74039.44;;;-140.58;100.00
17309;BME280;8772;42.804;23.426;2022-12-16T08:13:52;74027.13;;;-140.58;100.00
17309;BME280;8772;42.804;23.426;2022-12-16T08:16:33;74006.59;;;-140.58;100.00
17309;BME280;8772;42.804;23.426;2022-12-16T08:19:17;73994.28;;;-140.58;100.00
17309;BME280;8772;42.804;23.426;2022-12-16T08:22:01;73981.97;;;-140.58;100.00
17309;BME280;8772;42.804;23.426;2022-12-16T08:24:46;73961.47;;;-140.58;100.00
17309;BME280;8772;42.804;23.426;2022-12-16T08:27:31;73949.16;;;-140.58;100.00
17309;BME280;8772;42.804;23.426;2022-12-16T08:30:16;73934.81;;;-140.58;100.00
17309;BME280;8772;42.804;23.426;2022-12-16T08:33:00;73920.44;;;-140.58;100.00
17309;BME280;8772;42.804;23.426;2022-12-16T08:35:45;73914.28;;;-140.58;100.00
17309;BME280;8772;42.804;23.426;2022-12-16T08:38:29;73912.22;;;-140.58;100.00
17309;BME280;8772;42.804;23.426;2022-12-16T08:41:13;73901.97;;;-140.58;100.00
17309;BME280;8772;42.804;23.426;2022-12-16T08:43:59;73891.72;;;-140.58;100.00
17309;BME280;8772;42.804;23.426;2022-12-16T08:46:43;73887.63;;;-140.58;100.00
17309;BME280;8772;42.804;23.426;2022-12-16T08:49:27;73873.25;;;-140.58;100.00
17309;BME280;8772;42.804;23.426;2022-12-16T08:52:12;73875.31;;;-140.58;100.00
17309;BME280;8772;42.804;23.426;2022-12-16T08:54:56;73852.75;;;-140.58;100.00
17309;BME280;8772;42.804;23.426;2022-12-16T08:57:40;73854.78;;;-140.58;100.00
17309;BME280;8772;42.804;23.426;2022-12-16T09:00:26;73832.22;;;-140.58;100.00
17309;BME280;8772;42.804;23.426;2022-12-16T09:03:10;73821.97;;;-140.58;100.00
17309;BME280;8772;42.804;23.426;2022-12-16T09:05:57;73819.91;;;-140.58;100.00
17309;BME280;8772;42.804;23.426;2022-12-16T09:08:41;73807.59;;;-140.58;100.00
17309;BME280;8772;42.804;23.426;2022-12-16T09:11:28;73805.56;;;-140.58;100.00
17309;BME280;8772;42.804;23.426;2022-12-16T09:14:15;73791.19;;;-140.58;100.00
17309;BME280;8772;42.804;23.426;2022-12-16T09:17:01;73797.34;;;-140.58;100.00
17309;BME280;8772;42.804;23.426;2022-12-16T09:19:45;73791.19;;;-140.58;100.00
17309;BME280;8772;42.804;23.426;2022-12-16T09:22:29;73776.84;;;-140.58;100.00
17309;BME280;8772;42.804;23.426;2022-12-16T09:25:14;73766.56;;;-140.58;100.00
17309;BME280;8772;42.804;23.426;2022-12-16T09:27:58;73737.84;;;-140.58;100.00
17309;BME280;8772;42.804;23.426;2022-12-16T09:30:57;73715.28;;;-140.58;100.00
17309;BME280;8772;42.804;23.426;2022-12-16T09:33:42;73698.88;;;-140.58;100.00
17309;BME280;8772;42.804;23.426;2022-12-16T09:36:27;73698.88;;;-140.58;100.00
17309;BME280;8772;42.804;23.426;2022-12-16T09:39:11;73690.69;;;-140.58;100.00
17309;BME280;8772;42.804;23.426;2022-12-16T09:42:01;73682.47;;;-140.58;100.00
17309;BME280;8772;42.804;23.426;2022-12-16T09:44:55;73674.25;;;-140.58;100.00
17309;BME280;8772;42.804;23.426;2022-12-16T09:47:47;73661.97;;;-140.58;100.00
17309;BME280;8772;42.804;23.426;2022-12-16T09:50:37;73661.97;;;-140.58;100.00
17309;BME280;8772;42.804;23.426;2022-12-16T09:53:24;73666.06;;;-140.58;100.00
17309;BME280;8772;42.804;23.426;2022-12-16T09:56:15;73653.75;;;-140.58;100.00
17309;BME280;8772;42.804;23.426;2022-12-16T09:59:01;73631.19;;;-140.58;100.00
17309;BME280;8772;42.804;23.426;2022-12-16T10:01:49;73629.13;;;-140.58;100.00
17309;BME280;8772;42.804;23.426;2022-12-16T10:04:34;73614.78;;;-140.58;100.00
17309;BME280;8772;42.804;23.426;2022-12-16T10:07:20;73606.56;;;-140.58;100.00
17309;BME280;8772;42.804;23.426;2022-12-16T10:10:16;73590.16;;;-140.58;100.00
17309;BME280;8772;42.804;23.426;2022-12-16T10:13:06;73567.59;;;-140.58;100.00
17309;BME280;8772;42.804;23.426;2022-12-16T10:16:03;73571.69;;;-140.58;100.00
17309;BME280;8772;42.804;23.426;2022-12-16T10:18:55;73561.44;;;-140.58;100.00
17309;BME280;8772;42.804;23.426;2022-12-16T10:21:46;73547.09;;;-140.58;100.00
17309;BME280;8772;42.804;23.426;2022-12-16T10:24:45;73518.38;;;-140.58;100.00
17309;BME280;8772;42.804;23.426;2022-12-16T10:27:37;73510.16;;;-140.58;100.00
17309;BME280;8772;42.804;23.426;2022-12-16T10:30:25;73485.53;;;-140.58;100.00
17309;BME280;8772;42.804;23.426;2022-12-16T10:33:13;73493.75;;;-140.58;100.00
17309;BME280;8772;42.804;23.426;2022-12-16T10:35:58;73471.19;;;-140.58;100.00
17309;BME280;8772;42.804;23.426;2022-12-16T10:38:45;73465.03;;;-140.58;100.00
17309;BME280;8772;42.804;23.426;2022-12-16T10:41:35;73452.72;;;-140.58;100.00
17309;BME280;8772;42.804;23.426;2022-12-16T10:44:23;73448.63;;;-140.58;100.00
17309;BME280;8772;42.804;23.426;2022-12-16T10:47:09;73452.72;;;-140.58;100.00
17309;BME280;8772;42.804;23.426;2022-12-16T10:49:54;73438.38;;;-140.58;100.00
17309;BME280;8772;42.804;23.426;2022-12-16T10:53:00;73407.59;;;-140.58;100.00
17309;BME280;8772;42.804;23.426;2022-12-16T10:55:53;73395.28;;;-140.58;100.00
17309;BME280;8772;42.804;23.426;2022-12-16T10:58:46;73389.13;;;-140.58;100.00
17309;BME280;8772;42.804;23.426;2022-12-16T11:01:33;73387.09;;;-140.58;100.00
17309;BME280;8772;42.804;23.426;2022-12-16T11:04:31;73370.69;;;-140.58;100.00
17309;BME280;8772;42.804;23.426;2022-12-16T11:07:30;73364.53;;;-140.58;100.00
17309;BME280;8772;42.804;23.426;2022-12-16T11:10:32;73354.28;;;-140.58;100.00
17309;BME280;8772;42.804;23.426;2022-12-16T11:13:20;73344.00;;;-140.58;100.00
17309;BME280;8772;42.804;23.426;2022-12-16T11:16:10;73323.50;;;-140.58;100.00
17309;BME280;8772;42.804;23.426;2022-12-16T11:18:54;73317.34;;;-140.58;100.00
17309;BME280;8772;42.804;23.426;2022-12-16T11:21:39;73309.13;;;-140.58;100.00
17309;BME280;8772;42.804;23.426;2022-12-16T11:24:23;73296.84;;;-140.58;100.00
17309;BME280;8772;42.804;23.426;2022-12-16T11:27:13;73305.03;;;-140.58;100.00
17309;BME280;8772;42.804;23.426;2022-12-16T11:30:00;73268.13;;;-140.58;100.00
17309;BME280;8772;42.804;23.426;2022-12-16T11:32:48;73272.22;;;-140.58;100.00
17309;BME280;8772;42.804;23.426;2022-12-16T11:35:37;73257.88;;;-140.58;100.00
17309;BME280;8772;42.804;23.426;2022-12-16T11:53:59;73099.94;;;-140.58;100.00
17309;BME280;8772;42.804;23.426;2022-12-16T11:56:46;73136.84;;;-140.58;100.00
17309;BME280;8772;42.804;23.426;2022-12-16T11:59:36;73136.84;;;-140.58;100.00
17309;BME280;8772;42.804;23.426;2022-12-16T12:02:28;73134.78;;;-140.58;100.00
17309;BME280;8772;42.804;23.426;2022-12-16T12:05:14;73124.53;;;-140.58;100.00
17309;BME280;8772;42.804;23.426;2022-12-16T12:22:48;73017.91;;;-140.58;100.00
17309;BME280;8772;42.804;23.426;2022-12-16T12:25:39;73034.31;;;-140.58;100.00
17309;BME280;8772;42.804;23.426;2022-12-16T12:28:34;73022.00;;;-140.58;100.00
17309;BME280;8772;42.804;23.426;2022-12-16T12:31:31;73022.00;;;-140.58;100.00
17309;BME280;8772;42.804;23.426;2022-12-16T12:34:29;73015.84;;;-140.58;100.00
17309;BME280;8772;42.804;23.426;2022-12-16T12:37:23;73001.47;;;-140.58;100.00
17309;BME280;8772;42.804;23.426;2022-12-16T12:40:23;72997.38;;;-140.58;100.00
17309;BME280;8772;42.804;23.426;2022-12-16T12:43:20;73001.47;;;-140.58;100.00
17309;BME280;8772;42.804;23.426;2022-12-16T12:46:11;73017.91;;;-140.58;100.00
17309;BME280;8772;42.804;23.426;2022-12-16T12:49:04;73013.78;;;-140.58;100.00
17309;BME280;8772;42.804;23.426;2022-12-16T12:51:59;73015.84;;;-140.58;100.00
17309;BME280;8772;42.804;23.426;2022-12-16T12:54:51;73019.94;;;-140.58;100.00
17309;BME280;8772;42.804;23.426;2022-12-16T12:57:41;73017.91;;;-140.58;100.00
17309;BME280;8772;42.804;23.426;2022-12-16T13:00:24;73001.47;;;-140.58;100.00
17309;BME280;8772;42.804;23.426;2022-12-16T13:03:15;72964.56;;;-140.58;100.00
17309;BME280;8772;42.804;23.426;2022-12-16T13:06:05;72960.47;;;-140.58;100.00
17309;BME280;8772;42.804;23.426;2022-12-16T13:08:55;72948.16;;;-140.58;100.00
17309;BME280;8772;42.804;23.426;2022-12-16T13:12:22;72944.06;;;-140.58;100.00
17309;BME280;8772;42.804;23.426;2022-12-16T13:15:10;72944.06;;;-140.58;100.00
17309;BME280;8772;42.804;23.426;2022-12-16T13:21:45;72939.97;;;-140.58;100.00
17309;BME280;8772;42.804;23.426;2022-12-16T13:24:41;72974.81;;;-140.58;100.00
17309;BME280;8772;42.804;23.426;2022-12-16T13:27:27;72952.25;;;-140.58;100.00
17309;BME280;8772;42.804;23.426;2022-12-16T13:30:23;72968.66;;;-140.58;100.00
17309;BME280;8772;42.804;23.426;2022-12-16T13:33:25;72964.56;;;-140.58;100.00
17309;BME280;8772;42.804;23.426;2022-12-16T13:36:11;72968.66;;;-140.58;100.00
17309;BME280;8772;42.804;23.426;2022-12-16T13:39:05;72989.19;;;-140.58;100.00
17309;BME280;8772;42.804;23.426;2022-12-16T13:42:01;72993.28;;;-140.58;100.00
17309;BME280;8772;42.804;23.426;2022-12-16T13:44:57;73013.78;;;-140.58;100.00
17309;BME280;8772;42.804;23.426;2022-12-16T13:48:02;73017.91;;;-140.58;100.00
17309;BME280;8772;42.804;23.426;2022-12-16T13:50:49;73040.44;;;-140.58;100.00
17309;BME280;8772;42.804;23.426;2022-12-16T13:53:39;73083.53;;;-140.58;100.00
17309;BME280;8772;42.804;23.426;2022-12-16T13:56:32;73110.19;;;-140.58;100.00
17309;BME280;8772;42.804;23.426;2022-12-16T13:59:20;73104.03;;;-140.58;100.00
17309;BME280;8772;42.804;23.426;2022-12-16T14:02:19;73145.06;;;-140.58;100.00
17309;BME280;8772;42.804;23.426;2022-12-16T14:05:17;73153.25;;;-140.58;100.00
17309;BME280;8772;42.804;23.426;2022-12-16T14:08:05;73184.03;;;-140.58;100.00
17309;BME280;8772;42.804;23.426;2022-12-16T14:10:57;73210.69;;;-140.58;100.00
17309;BME280;8772;42.804;23.426;2022-12-16T14:13:46;73229.16;;;-140.58;100.00
17309;BME280;8772;42.804;23.426;2022-12-16T14:16:40;73227.09;;;-140.58;100.00
17309;BME280;8772;42.804;23.426;2022-12-16T14:19:32;73255.81;;;-140.58;100.00
17309;BME280;8772;42.804;23.426;2022-12-16T14:22:28;73261.97;;;-140.58;100.00
17309;BME280;8772;42.804;23.426;2022-12-16T14:25:17;73280.44;;;-140.58;100.00
17309;BME280;8772;42.804;23.426;2022-12-16T14:28:07;73296.84;;;-140.58;100.00
17309;BME280;8772;42.804;23.426;2022-12-16T14:31:13;73300.94;;;-140.58;100.00